Terminal Aerodrome Forecast
Issued by NWS

Current Version | Previous Version | Graphics & Text | Print | Product List | Glossary On
Versions: 1 2 3 4 5 6 7 8 9 10 11 12 13 14 15 16 17 18 19 20 21 22
576
FTUS41 KRLX 101135
TAFCKB
TAF
KCKB 101135Z 1012/1112 24004KT P6SM -SHSN BKN025 OVC040
     FM101500 25008KT P6SM BKN040
     FM102200 26006KT P6SM SCT100
     FM110900 VRB03KT P6SM -SN OVC040=

USA.gov is the U.S. government's official web portal to all federal, state and local government web resources and services.